فيلادلفيا، بنسيلفانيا, PA

02:03 PM EDT on أعس×س 29, 2014 (GMT -0400)
Philadelphia | Change Station
CLOSE
Current Station
Personal Weather Stations
Location: Philadelphia, PA
Elevation: 167 ft
Nearby Weather Stations

Elev 167 ft 40.13 °N, 75.00 °W | Updated 2 minutes ago

Clear
صافية
77.9 °F
Feels Like 79 °F
N
0.0
ريح متغير ريح from ENE

هذا اليوم
High -- | Low -- °F
--% Chance of Precip.
Yesterday
High -- | Low -- °F
Precip. -- في
6:24 AM 7:36 PM
الهلال الأول, 15% visible
الضغط 30.19 في
وضوح الرؤية 10.0 أميال
سحابات صافية
مؤشر الحرارة 79 °F
نقطة الندى 54 °F
الرطوبة 43%
Rainfall 0.00 في
عمق الثلج Not available.
الأشعة فوق البنفسجية 9 out of 12
Pollen 9.80 out of 12
الأوزون جيد
PM2.5 جيد
Flu Activity Not available.
METAR KPNE 291754Z VRB04KT 10SM CLR 26/08 A3019 RMK AO2 SLP223 T02610083 10261 20167 58007

More Conditions Fewer Conditions

الضغط 30.19 في
وضوح الرؤية 10.0 أميال
سحابات صافية
مؤشر الحرارة 79 °F
نقطة الندى 54 °F
الرطوبة 43%
Rainfall 0.00 في
عمق الثلج Not available.
الأشعة فوق البنفسجية 9 out of 12
Pollen 9.80 out of 12
الأوزون جيد
PM2.5 جيد
Flu Activity Not available.
METAR KPNE 291754Z VRB04KT 10SM CLR 26/08 A3019 RMK AO2 SLP223 T02610083 10261 20167 58007

More Conditions Fewer Conditions

10-Day Weather Forecast

Almanac

علم الفلك

Aug. 29, 2014 Rise Set
Actual Time 6:24 AM EDT 7:36 PM EDT
Civil Twilight 5:56 AM EDT 8:04 PM EDT
Nautical Twilight 5:23 AM EDT 8:37 PM EDT
Astronomical Twilight 4:48 AM EDT 9:12 PM EDT
قمر 10:12 AM EDT 9:32 PM EDT
Length Of Visible Light 14h 07m
طول الیوم
13h 11m
Tomorrow will be 2m 30s shorter.
الهلال الأول, 15% of the Moon is Illuminated
هذا اليوم
الهلال الأول
Sep 2
الربع الاول
Sep 8
بدر
Sep 15
الربع الآخر
Sep 24
New

Today's Extremes

State Highs State Lows

Community

WunderPhotos

Upload Photos

1,748,307 photos uploaded!

Nearby

جودة الهواء

  جودة الهواء AQ Index Pollutant
Yesterday جيد
PM2.5
Yesterday جيد
OZONE
حال جيد
PM2.5
حال جيد
OZONE
الجمعة معتدل
OZONE
الجمعة جيد
PM2.5
السبت معتدل
OZONE
السبت معتدل
PM2.5
الأحد معتدل
OZONE
الأحد معتدل
PM2.5

عمق الثلج

Station Depth Elevation
No new snow has been reported.

Earthquake Activity

City Distance Mag. Time & Date
No recent earthquake activity has been reported nearby.
Minimum magnitude displayed is 2.5.

Coastal Water Temperatures

مكان درجات الحرارة
No Stations Reporting

Nearby Weather Stations